sensor_id;sensor_type;location;lat;lon;timestamp;pressure;altitude;pressure_sealevel;temperature;humidity
74913;BME280;63878;55.624;37.304;2023-01-23T00:05:18;101217.59;;;-6.55;69.23
74913;BME280;63878;55.624;37.304;2023-01-23T00:15:19;101210.31;;;-6.85;70.50
74913;BME280;63878;55.624;37.304;2023-01-23T00:25:20;101213.09;;;-6.70;70.33
74913;BME280;63878;55.624;37.304;2023-01-23T00:35:20;101211.59;;;-6.55;69.83
74913;BME280;63878;55.624;37.304;2023-01-23T00:45:21;101212.25;;;-6.69;70.49
74913;BME280;63878;55.624;37.304;2023-01-23T00:55:21;101217.38;;;-6.70;70.75
74913;BME280;63878;55.624;37.304;2023-01-23T01:05:22;101232.38;;;-6.96;71.73
74913;BME280;63878;55.624;37.304;2023-01-23T01:15:22;101244.81;;;-6.68;70.94
74913;BME280;63878;55.624;37.304;2023-01-23T01:25:24;101243.06;;;-6.70;70.92
74913;BME280;63878;55.624;37.304;2023-01-23T01:35:24;101248.84;;;-6.82;71.23
74913;BME280;63878;55.624;37.304;2023-01-23T01:55:59;101243.50;;;-6.94;72.63
74913;BME280;63878;55.624;37.304;2023-01-23T02:06:00;101242.84;;;-6.84;72.15
74913;BME280;63878;55.624;37.304;2023-01-23T02:16:06;101247.00;;;-6.92;71.11
74913;BME280;63878;55.624;37.304;2023-01-23T02:26:11;101241.34;;;-6.70;70.41
74913;BME280;63878;55.624;37.304;2023-01-23T02:36:13;101235.13;;;-6.85;70.20
74913;BME280;63878;55.624;37.304;2023-01-23T02:46:13;101223.25;;;-6.77;69.67
74913;BME280;63878;55.624;37.304;2023-01-23T02:56:14;101240.28;;;-6.84;69.50
74913;BME280;63878;55.624;37.304;2023-01-23T03:06:16;101254.72;;;-6.90;69.77
74913;BME280;63878;55.624;37.304;2023-01-23T03:16:17;101257.16;;;-6.98;69.85
74913;BME280;63878;55.624;37.304;2023-01-23T03:26:17;101248.25;;;-7.17;71.65
74913;BME280;63878;55.624;37.304;2023-01-23T03:36:18;101255.81;;;-7.25;71.41
74913;BME280;63878;55.624;37.304;2023-01-23T03:46:18;101254.31;;;-7.13;71.49
74913;BME280;63878;55.624;37.304;2023-01-23T03:56:19;101253.34;;;-7.20;71.97
74913;BME280;63878;55.624;37.304;2023-01-23T04:06:19;101252.00;;;-6.98;70.14
74913;BME280;63878;55.624;37.304;2023-01-23T04:16:21;101255.31;;;-7.05;71.33
74913;BME280;63878;55.624;37.304;2023-01-23T04:26:21;101263.72;;;-7.14;71.34
74913;BME280;63878;55.624;37.304;2023-01-23T04:36:22;101259.94;;;-7.33;73.34
74913;BME280;63878;55.624;37.304;2023-01-23T04:46:22;101276.38;;;-7.22;72.66
74913;BME280;63878;55.624;37.304;2023-01-23T04:56:22;101285.63;;;-7.31;72.45
74913;BME280;63878;55.624;37.304;2023-01-23T05:06:24;101284.94;;;-7.23;70.89
74913;BME280;63878;55.624;37.304;2023-01-23T05:16:24;101294.84;;;-6.94;71.14
74913;BME280;63878;55.624;37.304;2023-01-23T05:26:25;101295.69;;;-6.97;71.12
74913;BME280;63878;55.624;37.304;2023-01-23T05:36:25;101310.94;;;-7.04;70.80
74913;BME280;63878;55.624;37.304;2023-01-23T05:46:26;101324.69;;;-7.01;71.54
74913;BME280;63878;55.624;37.304;2023-01-23T05:56:27;101327.22;;;-7.04;70.89
74913;BME280;63878;55.624;37.304;2023-01-23T06:06:27;101341.66;;;-7.07;71.45
74913;BME280;63878;55.624;37.304;2023-01-23T06:16:28;101329.38;;;-7.25;71.20
74913;BME280;63878;55.624;37.304;2023-01-23T06:26:29;101346.34;;;-7.32;70.70
74913;BME280;63878;55.624;37.304;2023-01-23T06:36:29;101348.78;;;-7.38;71.34
74913;BME280;63878;55.624;37.304;2023-01-23T06:46:30;101363.84;;;-7.12;69.79
74913;BME280;63878;55.624;37.304;2023-01-23T06:56:31;101360.72;;;-7.40;70.22
74913;BME280;63878;55.624;37.304;2023-01-23T07:06:31;101356.78;;;-7.23;70.75
74913;BME280;63878;55.624;37.304;2023-01-23T07:16:31;101367.03;;;-7.23;70.16
74913;BME280;63878;55.624;37.304;2023-01-23T07:26:32;101356.66;;;-7.29;70.65
74913;BME280;63878;55.624;37.304;2023-01-23T07:36:33;101370.28;;;-7.33;70.64
74913;BME280;63878;55.624;37.304;2023-01-23T07:46:33;101364.19;;;-7.38;71.15
74913;BME280;63878;55.624;37.304;2023-01-23T07:56:34;101369.44;;;-7.71;71.92
74913;BME280;63878;55.624;37.304;2023-01-23T08:06:34;101371.78;;;-7.41;70.82
74913;BME280;63878;55.624;37.304;2023-01-23T08:16:35;101375.88;;;-7.51;71.27
74913;BME280;63878;55.624;37.304;2023-01-23T08:26:36;101372.91;;;-7.28;70.74
74913;BME280;63878;55.624;37.304;2023-01-23T08:36:37;101383.69;;;-7.46;70.70
74913;BME280;63878;55.624;37.304;2023-01-23T08:46:37;101377.97;;;-7.33;71.33
74913;BME280;63878;55.624;37.304;2023-01-23T08:56:38;101387.03;;;-7.49;70.73
74913;BME280;63878;55.624;37.304;2023-01-23T09:06:38;101392.94;;;-7.53;70.52
74913;BME280;63878;55.624;37.304;2023-01-23T09:16:39;101380.88;;;-7.57;70.55
74913;BME280;63878;55.624;37.304;2023-01-23T09:26:40;101370.69;;;-7.54;69.01
74913;BME280;63878;55.624;37.304;2023-01-23T09:36:41;101354.25;;;-7.62;70.63
74913;BME280;63878;55.624;37.304;2023-01-23T09:46:52;101351.28;;;-7.41;70.18
74913;BME280;63878;55.624;37.304;2023-01-23T09:56:54;101350.50;;;-7.37;69.64
74913;BME280;63878;55.624;37.304;2023-01-23T10:17:24;101360.13;;;-7.27;68.56
74913;BME280;63878;55.624;37.304;2023-01-23T10:27:33;101353.63;;;-7.09;68.01
74913;BME280;63878;55.624;37.304;2023-01-23T10:47:53;101339.72;;;-7.21;68.68
74913;BME280;63878;55.624;37.304;2023-01-23T10:57:56;101342.59;;;-7.05;68.67
74913;BME280;63878;55.624;37.304;2023-01-23T11:07:57;101336.00;;;-6.91;67.69
74913;BME280;63878;55.624;37.304;2023-01-23T11:17:59;101328.63;;;-6.73;67.61
74913;BME280;63878;55.624;37.304;2023-01-23T11:28:11;101331.09;;;-6.79;67.46
74913;BME280;63878;55.624;37.304;2023-01-23T11:38:19;101328.69;;;-6.70;67.45
74913;BME280;63878;55.624;37.304;2023-01-23T12:19:34;101336.94;;;-6.38;67.70
74913;BME280;63878;55.624;37.304;2023-01-23T12:40:36;101332.50;;;-6.46;69.53
74913;BME280;63878;55.624;37.304;2023-01-23T12:50:46;101315.84;;;-6.68;69.70
74913;BME280;63878;55.624;37.304;2023-01-23T13:01:09;101314.31;;;-6.05;67.36
74913;BME280;63878;55.624;37.304;2023-01-23T13:11:28;101318.28;;;-5.64;65.55
74913;BME280;63878;55.624;37.304;2023-01-23T13:21:34;101318.00;;;-6.43;67.96
74913;BME280;63878;55.624;37.304;2023-01-23T13:41:42;101312.19;;;-6.31;68.28
74913;BME280;63878;55.624;37.304;2023-01-23T13:51:44;101314.50;;;-5.90;67.42
74913;BME280;63878;55.624;37.304;2023-01-23T14:02:03;101304.41;;;-6.34;68.46
74913;BME280;63878;55.624;37.304;2023-01-23T14:12:05;101302.88;;;-6.23;67.85
74913;BME280;63878;55.624;37.304;2023-01-23T14:22:09;101305.22;;;-6.40;68.86
74913;BME280;63878;55.624;37.304;2023-01-23T14:32:28;101297.53;;;-6.38;69.76
74913;BME280;63878;55.624;37.304;2023-01-23T14:42:34;101288.56;;;-6.61;69.76
74913;BME280;63878;55.624;37.304;2023-01-23T14:52:36;101283.31;;;-6.69;70.35
74913;BME280;63878;55.624;37.304;2023-01-23T15:02:38;101289.19;;;-6.76;70.31
74913;BME280;63878;55.624;37.304;2023-01-23T15:33:46;101279.84;;;-6.73;69.80
74913;BME280;63878;55.624;37.304;2023-01-23T15:43:46;101290.16;;;-6.70;70.56
74913;BME280;63878;55.624;37.304;2023-01-23T15:53:47;101277.38;;;-6.11;68.29
74913;BME280;63878;55.624;37.304;2023-01-23T16:03:48;101259.44;;;-6.62;68.71
74913;BME280;63878;55.624;37.304;2023-01-23T16:13:56;101269.78;;;-6.60;69.69
74913;BME280;63878;55.624;37.304;2023-01-23T16:23:57;101263.19;;;-6.43;68.11
74913;BME280;63878;55.624;37.304;2023-01-23T16:34:01;101257.28;;;-6.36;67.59
74913;BME280;63878;55.624;37.304;2023-01-23T16:44:02;101265.94;;;-6.31;67.64
74913;BME280;63878;55.624;37.304;2023-01-23T16:54:04;101261.75;;;-6.24;67.47
74913;BME280;63878;55.624;37.304;2023-01-23T17:04:06;101253.06;;;-6.32;66.97
74913;BME280;63878;55.624;37.304;2023-01-23T17:24:17;101253.09;;;-6.31;67.52
74913;BME280;63878;55.624;37.304;2023-01-23T17:34:25;101258.25;;;-6.29;67.49
74913;BME280;63878;55.624;37.304;2023-01-23T17:44:31;101262.59;;;-6.25;66.93
74913;BME280;63878;55.624;37.304;2023-01-23T17:54:32;101268.03;;;-6.05;67.35
74913;BME280;63878;55.624;37.304;2023-01-23T18:04:40;101264.34;;;-6.23;66.83
74913;BME280;63878;55.624;37.304;2023-01-23T18:14:57;101251.53;;;-6.20;66.21
74913;BME280;63878;55.624;37.304;2023-01-23T18:25:13;101246.94;;;-6.41;66.88
74913;BME280;63878;55.624;37.304;2023-01-23T18:45:21;101236.81;;;-6.30;66.55
74913;BME280;63878;55.624;37.304;2023-01-23T18:55:44;101238.75;;;-6.15;66.72
74913;BME280;63878;55.624;37.304;2023-01-23T19:05:48;101241.38;;;-6.12;66.65
74913;BME280;63878;55.624;37.304;2023-01-23T19:26:14;101243.00;;;-6.16;67.04
74913;BME280;63878;55.624;37.304;2023-01-23T19:36:15;101248.06;;;-6.23;67.44
74913;BME280;63878;55.624;37.304;2023-01-23T19:46:17;101246.50;;;-6.14;66.62
74913;BME280;63878;55.624;37.304;2023-01-23T19:56:18;101243.00;;;-6.16;67.46
74913;BME280;63878;55.624;37.304;2023-01-23T20:06:18;101237.25;;;-6.60;67.78
74913;BME280;63878;55.624;37.304;2023-01-23T20:16:20;101250.03;;;-6.05;67.15
74913;BME280;63878;55.624;37.304;2023-01-23T20:26:22;101240.28;;;-6.28;67.33
74913;BME280;63878;55.624;37.304;2023-01-23T20:36:23;101242.06;;;-6.22;68.19
74913;BME280;63878;55.624;37.304;2023-01-23T20:46:23;101233.50;;;-6.21;67.68
74913;BME280;63878;55.624;37.304;2023-01-23T20:56:24;101232.66;;;-6.22;67.80
74913;BME280;63878;55.624;37.304;2023-01-23T21:06:24;101223.75;;;-6.45;68.72
74913;BME280;63878;55.624;37.304;2023-01-23T21:16:25;101219.19;;;-6.65;68.87
74913;BME280;63878;55.624;37.304;2023-01-23T21:26:27;101214.44;;;-6.39;68.75
74913;BME280;63878;55.624;37.304;2023-01-23T21:36:28;101202.81;;;-6.12;68.05
74913;BME280;63878;55.624;37.304;2023-01-23T21:46:28;101195.69;;;-6.30;68.42
74913;BME280;63878;55.624;37.304;2023-01-23T21:56:29;101196.66;;;-6.22;67.86
74913;BME280;63878;55.624;37.304;2023-01-23T22:06:31;101215.31;;;-6.35;68.95
74913;BME280;63878;55.624;37.304;2023-01-23T22:16:32;101201.59;;;-6.39;69.38
74913;BME280;63878;55.624;37.304;2023-01-23T22:26:32;101203.41;;;-6.30;68.29
74913;BME280;63878;55.624;37.304;2023-01-23T22:36:33;101209.28;;;-6.39;69.12
74913;BME280;63878;55.624;37.304;2023-01-23T22:46:33;101191.34;;;-6.34;69.04
74913;BME280;63878;55.624;37.304;2023-01-23T22:56:34;101186.94;;;-6.46;69.14
74913;BME280;63878;55.624;37.304;2023-01-23T23:06:35;101171.78;;;-6.24;68.88
74913;BME280;63878;55.624;37.304;2023-01-23T23:16:36;101177.81;;;-6.24;69.09
74913;BME280;63878;55.624;37.304;2023-01-23T23:26:36;101177.78;;;-6.27;68.73
74913;BME280;63878;55.624;37.304;2023-01-23T23:36:36;101183.81;;;-6.22;68.77
74913;BME280;63878;55.624;37.304;2023-01-23T23:46:37;101174.44;;;-6.20;68.19
74913;BME280;63878;55.624;37.304;2023-01-23T23:56:37;101168.38;;;-6.22;68.65
